createdAt,value
2019-03-04T00:02:20.167Z,97652.47
2019-03-04T00:04:47.587Z,97631.33
2019-03-04T00:07:15.051Z,97621.32
2019-03-04T00:09:42.543Z,97619.70
2019-03-04T00:12:09.995Z,97620.94
2019-03-04T00:14:37.466Z,97620.25
2019-03-04T00:17:04.937Z,97610.64
2019-03-04T00:19:32.394Z,97603.29
2019-03-04T00:21:59.849Z,97585.50
2019-03-04T00:24:27.303Z,97587.54
2019-03-04T00:26:54.773Z,97570.40
2019-03-04T00:29:22.232Z,97588.77
2019-03-04T00:31:49.669Z,97581.55
2019-03-04T00:34:17.157Z,97577.94
2019-03-04T00:36:44.599Z,97569.93
2019-03-04T00:39:12.100Z,97553.90
2019-03-04T00:41:39.606Z,97556.92
2019-03-04T00:44:07.029Z,97539.71
2019-03-04T00:46:35.002Z,97510.48
2019-03-04T00:49:04.022Z,97493.02
2019-03-04T00:51:31.646Z,97493.64
2019-03-04T00:53:59.146Z,97481.55
2019-03-04T00:56:26.623Z,97464.02
2019-03-04T00:58:54.067Z,97449.76
2019-03-04T01:01:21.636Z,97462.31
2019-03-04T01:03:49.147Z,97457.78
2019-03-04T01:06:16.601Z,97454.29
2019-03-04T01:08:45.107Z,97452.03
2019-03-04T01:11:12.626Z,97441.72
2019-03-04T01:13:40.108Z,97452.73
2019-03-04T01:16:07.551Z,97463.55
2019-03-04T01:18:35.025Z,97467.97
2019-03-04T01:21:02.468Z,97468.52
2019-03-04T01:23:30.001Z,97453.88
2019-03-04T01:25:57.481Z,97449.13
2019-03-04T01:28:24.942Z,97461.96
2019-03-04T01:30:52.405Z,97455.41
2019-03-04T01:33:19.871Z,97454.92
2019-03-04T01:35:47.415Z,97456.25
2019-03-04T01:38:15.695Z,97452.86
2019-03-04T01:40:43.187Z,97443.27
2019-03-04T01:43:10.608Z,97438.31
2019-03-04T01:45:38.137Z,97412.23
2019-03-04T01:48:05.579Z,97408.37
2019-03-04T01:50:33.063Z,97400.44
2019-03-04T01:53:00.539Z,97413.60
2019-03-04T01:55:28.006Z,97388.64
2019-03-04T01:57:57.160Z,97382.62
2019-03-04T02:00:24.683Z,97364.36
2019-03-04T02:02:52.192Z,97346.94
2019-03-04T02:05:19.662Z,97325.11
2019-03-04T02:07:47.117Z,97355.08
2019-03-04T02:10:18.495Z,97312.06
2019-03-04T02:12:46.239Z,97317.53
2019-03-04T02:15:13.767Z,97321.76
2019-03-04T02:17:41.244Z,97354.67
2019-03-04T02:20:09.593Z,97337.64
2019-03-04T02:22:37.091Z,97305.23
2019-03-04T02:25:04.602Z,97300.52
2019-03-04T02:27:32.064Z,97286.09
2019-03-04T02:29:59.601Z,97260.00
2019-03-04T02:32:27.064Z,97245.20
2019-03-04T02:34:54.513Z,97202.40
2019-03-04T02:37:22.966Z,97203.73
2019-03-04T02:39:50.429Z,97210.28
2019-03-04T02:42:17.879Z,97218.73
2019-03-04T02:44:45.368Z,97241.93
2019-03-04T02:47:12.822Z,97238.41
2019-03-04T02:49:40.327Z,97224.02
2019-03-04T02:52:07.777Z,97215.22
2019-03-04T02:54:35.235Z,97217.81
2019-03-04T02:57:02.746Z,97216.90
2019-03-04T02:59:30.214Z,97215.02
2019-03-04T03:01:57.679Z,97205.59
2019-03-04T03:04:25.194Z,97207.16
2019-03-04T03:06:52.618Z,97190.81
2019-03-04T03:09:20.076Z,97183.84
2019-03-04T03:11:47.543Z,97159.85
2019-03-04T03:14:15.019Z,97153.65
2019-03-04T03:16:42.482Z,97158.09
2019-03-04T03:19:09.960Z,97152.35
2019-03-04T03:21:37.480Z,97154.00
2019-03-04T03:24:04.949Z,97142.69
2019-03-04T03:26:32.405Z,97134.87
2019-03-04T03:28:59.898Z,97143.70
2019-03-04T03:31:27.369Z,97153.61
2019-03-04T03:33:54.845Z,97093.47
2019-03-04T03:36:22.308Z,97073.75
2019-03-04T03:38:49.827Z,97049.86
2019-03-04T03:41:18.496Z,97041.23
2019-03-04T03:43:45.955Z,97036.02
2019-03-04T03:46:13.402Z,97033.77
2019-03-04T03:48:40.888Z,97033.55
2019-03-04T03:51:08.344Z,97043.48
2019-03-04T03:53:35.771Z,97039.20
2019-03-04T03:56:03.228Z,97020.87
2019-03-04T03:58:30.706Z,97013.69
2019-03-04T04:00:58.179Z,96999.26
2019-03-04T04:03:25.625Z,97004.03
2019-03-04T04:05:53.091Z,97009.56
2019-03-04T04:08:20.529Z,97013.70
2019-03-04T04:10:49.027Z,97012.95
2019-03-04T04:13:16.560Z,96977.97
2019-03-04T04:15:44.045Z,96975.10
2019-03-04T04:18:11.504Z,96976.61
2019-03-04T04:20:38.943Z,96976.41
2019-03-04T04:23:06.419Z,96959.14
2019-03-04T04:25:33.893Z,96934.19
2019-03-04T04:28:02.530Z,96910.23
2019-03-04T04:30:32.048Z,96899.42
2019-03-04T04:32:59.521Z,96905.32
2019-03-04T04:35:26.951Z,96914.07
2019-03-04T04:37:54.387Z,96915.23
2019-03-04T04:40:21.834Z,96920.45
2019-03-04T04:42:49.702Z,96922.89
2019-03-04T04:45:17.156Z,96923.72
2019-03-04T04:47:44.614Z,96914.08
2019-03-04T04:50:15.442Z,96915.05
2019-03-04T04:52:42.891Z,96926.48
2019-03-04T04:55:10.360Z,96910.13
2019-03-04T04:57:37.826Z,96919.61
2019-03-04T05:00:07.171Z,96940.73
2019-03-04T05:02:34.639Z,96919.53
2019-03-04T05:05:02.149Z,96921.23
2019-03-04T05:07:29.613Z,96902.92
2019-03-04T05:09:57.035Z,96903.66
2019-03-04T05:12:24.478Z,96899.42
2019-03-04T05:14:51.961Z,96885.34
2019-03-04T05:17:20.310Z,96886.14
2019-03-04T05:19:47.752Z,96885.58
2019-03-04T05:22:15.233Z,96866.03
2019-03-04T05:24:42.706Z,96872.55
2019-03-04T05:27:10.156Z,96861.53
2019-03-04T05:29:37.595Z,96861.75
2019-03-04T05:32:05.020Z,96864.97
2019-03-04T05:34:32.491Z,96851.22
2019-03-04T05:36:59.942Z,96867.19
2019-03-04T05:39:27.400Z,96829.87
2019-03-04T05:41:54.871Z,96826.33
2019-03-04T05:44:22.322Z,96838.77
2019-03-04T05:46:50.825Z,96816.98
2019-03-04T05:49:18.319Z,96812.42
2019-03-04T05:51:45.736Z,96801.73
2019-03-04T05:54:13.194Z,96791.45
2019-03-04T05:56:40.628Z,96786.96
2019-03-04T05:59:08.102Z,96793.00
2019-03-04T06:01:35.579Z,96788.79
2019-03-04T06:04:03.050Z,96779.09
2019-03-04T06:06:36.234Z,96757.27
2019-03-04T06:09:03.752Z,96743.21
2019-03-04T06:11:31.224Z,96730.99
2019-03-04T06:13:58.664Z,96724.75
2019-03-04T06:16:26.107Z,96712.97
2019-03-04T06:18:53.574Z,96709.92
2019-03-04T06:21:21.596Z,96775.84
2019-03-04T06:23:49.050Z,96944.03
2019-03-04T06:26:16.470Z,96942.06
2019-03-04T06:28:43.957Z,96954.13
2019-03-04T06:31:11.422Z,96948.08
2019-03-04T06:33:38.883Z,96956.12
2019-03-04T06:36:06.318Z,96955.38
2019-03-04T06:38:33.754Z,96954.20
2019-03-04T06:41:01.222Z,96930.59
2019-03-04T06:43:28.696Z,96974.02
2019-03-04T06:45:56.657Z,96952.16
2019-03-04T06:48:24.078Z,96989.86
2019-03-04T06:50:52.245Z,96972.52
2019-03-04T06:53:34.568Z,96958.47
2019-03-04T06:56:04.556Z,96950.48
2019-03-04T06:58:32.062Z,96935.13
2019-03-04T07:00:59.532Z,96916.73
2019-03-04T07:03:27.025Z,96902.06
2019-03-04T07:05:54.456Z,96869.52
2019-03-04T07:11:31.090Z,96866.83
2019-03-04T07:13:58.554Z,96858.68
2019-03-04T07:16:26.015Z,96878.84
2019-03-04T07:18:54.557Z,96885.07
2019-03-04T07:21:22.757Z,96902.75
2019-03-04T07:23:50.261Z,96865.98
2019-03-04T07:26:17.740Z,96910.53
2019-03-04T07:28:45.212Z,96900.44
2019-03-04T07:31:13.882Z,96910.59
2019-03-04T07:33:41.299Z,96901.72
2019-03-04T07:36:08.758Z,96906.17
2019-03-04T07:38:40.574Z,96909.62
2019-03-04T07:41:08.046Z,96906.89
2019-03-04T07:43:35.490Z,96903.41
2019-03-04T07:46:02.941Z,96912.27
2019-03-04T07:48:30.399Z,96891.25
2019-03-04T07:50:57.845Z,96911.55
2019-03-04T07:53:25.265Z,96903.64
2019-03-04T07:55:53.314Z,96899.70
2019-03-04T07:58:20.744Z,96912.16
2019-03-04T08:00:49.946Z,96906.73
2019-03-04T08:03:18.097Z,96914.97
2019-03-04T08:05:45.575Z,96915.66
2019-03-04T08:08:13.046Z,96912.37
2019-03-04T08:10:50.149Z,96916.41
2019-03-04T08:13:18.506Z,96916.41
2019-03-04T08:15:46.002Z,96915.13
2019-03-04T08:18:13.454Z,96900.20
2019-03-04T08:20:40.914Z,96905.92
2019-03-04T08:23:10.028Z,96915.42
2019-03-04T08:25:35.876Z,96905.33
2019-03-04T08:28:03.345Z,96920.00
2019-03-04T08:30:30.838Z,96918.98
2019-03-04T08:32:58.276Z,96921.52
2019-03-04T08:35:25.737Z,96935.91
2019-03-04T08:37:54.076Z,96936.39
2019-03-04T08:40:21.573Z,96933.78
2019-03-04T08:42:49.885Z,96959.56
2019-03-04T08:45:18.341Z,96976.41
2019-03-04T08:47:45.804Z,96963.97
2019-03-04T08:50:13.919Z,96969.32
2019-03-04T08:52:41.427Z,96958.09
2019-03-04T08:55:09.686Z,96945.30
2019-03-04T08:57:37.182Z,96955.42
2019-03-04T09:00:08.097Z,96940.73
2019-03-04T09:02:35.580Z,96935.60
2019-03-04T09:05:03.031Z,96947.86
2019-03-04T09:07:30.485Z,96924.01
2019-03-04T09:09:57.938Z,96913.71
2019-03-04T09:12:25.400Z,96927.61
2019-03-04T09:14:52.838Z,96932.86
2019-03-04T09:17:20.284Z,96914.13
2019-03-04T09:19:47.735Z,96925.60
2019-03-04T09:22:15.207Z,96912.87
2019-03-04T09:24:42.632Z,96934.61
2019-03-04T09:27:10.098Z,96933.44
2019-03-04T09:29:37.566Z,96939.26
2019-03-04T09:32:05.077Z,96955.59
2019-03-04T09:34:32.546Z,96959.31
2019-03-04T09:36:59.982Z,96960.23
2019-03-04T09:42:07.668Z,96934.22
2019-03-04T09:44:35.132Z,96928.04
2019-03-04T09:47:02.597Z,96934.98
2019-03-04T09:49:30.028Z,96924.69
2019-03-04T09:51:57.482Z,96920.38
2019-03-04T09:54:25.662Z,96957.11
2019-03-04T09:56:54.169Z,96947.41
2019-03-04T09:59:21.698Z,96934.95
2019-03-04T10:01:49.187Z,96932.89
2019-03-04T10:04:22.461Z,96933.91
2019-03-04T10:06:58.195Z,96929.42
2019-03-04T10:09:32.577Z,96928.33
2019-03-04T10:12:15.521Z,96932.41
2019-03-04T10:15:07.992Z,96942.63
2019-03-04T10:17:43.843Z,96930.98
2019-03-04T10:20:27.032Z,96916.63
2019-03-04T10:23:05.145Z,96912.65
2019-03-04T10:25:38.456Z,96903.78
2019-03-04T10:28:11.720Z,96914.45
2019-03-04T10:30:48.604Z,96916.41
2019-03-04T10:33:17.454Z,96919.91
2019-03-04T10:36:05.799Z,96942.20
2019-03-04T10:38:38.799Z,96927.92
2019-03-04T10:41:21.908Z,96922.02
2019-03-04T10:44:06.815Z,96922.48
2019-03-04T10:46:50.778Z,96919.64
2019-03-04T10:49:18.262Z,96916.23
2019-03-04T10:51:45.722Z,96896.93
2019-03-04T10:54:13.939Z,96911.03
2019-03-04T10:56:42.417Z,96920.52
2019-03-04T10:59:08.981Z,96913.56
2019-03-04T11:01:36.443Z,96893.86
2019-03-04T11:04:03.906Z,96867.91
2019-03-04T11:06:31.370Z,96896.11
2019-03-04T11:08:58.847Z,96870.22
2019-03-04T11:11:30.030Z,96900.70
2019-03-04T11:13:55.252Z,96885.53
2019-03-04T11:16:22.718Z,96875.63
2019-03-04T11:18:50.168Z,96853.00
2019-03-04T11:21:17.647Z,96854.31
2019-03-04T11:23:45.124Z,96880.50
2019-03-04T11:26:12.583Z,96942.45
2019-03-04T11:28:40.007Z,97013.66
2019-03-04T11:31:07.464Z,97009.28
2019-03-04T11:33:34.923Z,97026.68
2019-03-04T11:36:02.462Z,97023.86
2019-03-04T11:38:39.896Z,97019.83
2019-03-04T11:41:08.275Z,97027.48
2019-03-04T11:43:35.992Z,97029.55
2019-03-04T11:46:03.440Z,97033.49
2019-03-04T11:48:30.918Z,97057.14
2019-03-04T11:50:58.369Z,97075.36
2019-03-04T11:53:27.024Z,97067.34
2019-03-04T11:55:54.485Z,97059.02
2019-03-04T11:58:21.925Z,97076.41
2019-03-04T12:01:05.070Z,97085.05
2019-03-04T12:03:32.516Z,97099.43
2019-03-04T12:06:00.977Z,97092.73
2019-03-04T12:08:28.462Z,97099.45
2019-03-04T12:10:55.928Z,97111.01
2019-03-04T12:13:23.386Z,97101.02
2019-03-04T12:15:50.834Z,97088.60
2019-03-04T12:18:18.294Z,97098.14
2019-03-04T12:20:45.746Z,97113.91
2019-03-04T12:23:13.272Z,97126.89
2019-03-04T12:25:40.715Z,97126.48
2019-03-04T12:28:08.196Z,97135.52
2019-03-04T12:30:35.649Z,97132.28
2019-03-04T12:33:03.094Z,97144.47
2019-03-04T12:35:30.515Z,97167.46
2019-03-04T12:37:58.660Z,97151.88
2019-03-04T12:40:26.079Z,97164.63
2019-03-04T12:42:53.554Z,97177.42
2019-03-04T12:45:21.014Z,97188.06
2019-03-04T12:47:49.941Z,97196.00
2019-03-04T12:50:23.805Z,97213.05
2019-03-04T12:52:51.273Z,97222.11
2019-03-04T12:55:18.685Z,97219.16
2019-03-04T12:57:46.125Z,97231.39
2019-03-04T13:00:15.522Z,97226.85
2019-03-04T13:02:43.052Z,97246.77
2019-03-04T13:05:10.499Z,97237.66
2019-03-04T13:07:37.944Z,97233.99
2019-03-04T13:10:06.159Z,97236.48
2019-03-04T13:12:33.585Z,97249.73
2019-03-04T13:15:01.025Z,97259.11
2019-03-04T13:17:29.226Z,97245.44
2019-03-04T13:19:56.693Z,97254.12
2019-03-04T13:22:25.652Z,97249.31
2019-03-04T13:24:53.233Z,97254.63
2019-03-04T13:27:23.778Z,97265.70
2019-03-04T13:29:49.163Z,97259.13
2019-03-04T13:32:17.609Z,97273.53
2019-03-04T13:34:48.462Z,97275.06
2019-03-04T13:37:17.201Z,97285.64
2019-03-04T13:39:45.666Z,97287.36
2019-03-04T13:42:13.180Z,97288.81
2019-03-04T13:44:40.623Z,97289.34
2019-03-04T13:47:08.058Z,97294.09
2019-03-04T13:49:36.638Z,97298.05
2019-03-04T13:52:04.197Z,97311.09
2019-03-04T13:54:31.647Z,97319.17
2019-03-04T13:56:59.108Z,97313.80
2019-03-04T13:59:26.610Z,97316.42
2019-03-04T14:01:54.060Z,97337.73
2019-03-04T14:04:21.525Z,97337.62
2019-03-04T14:06:48.942Z,97340.25
2019-03-04T14:09:16.397Z,97344.93
2019-03-04T14:11:43.854Z,97345.06
2019-03-04T14:16:42.524Z,97353.77
2019-03-04T14:19:09.997Z,97354.28
2019-03-04T14:21:37.447Z,97354.83
2019-03-04T14:24:04.910Z,97370.44
2019-03-04T14:26:32.362Z,97357.22
2019-03-04T14:28:59.818Z,97376.49
2019-03-04T14:31:27.444Z,97378.16
2019-03-04T14:33:54.902Z,97379.91
2019-03-04T14:36:22.354Z,97392.25
2019-03-04T14:38:49.923Z,97399.98
2019-03-04T14:41:17.347Z,97401.30
2019-03-04T14:43:44.797Z,97395.63
2019-03-04T14:46:12.242Z,97422.52
2019-03-04T14:48:41.715Z,97436.09
2019-03-04T14:51:09.218Z,97417.95
2019-03-04T14:53:36.631Z,97425.03
2019-03-04T14:56:04.079Z,97439.26
2019-03-04T14:58:31.531Z,97442.05
2019-03-04T15:00:59.007Z,97430.38
2019-03-04T15:03:26.448Z,97441.89
2019-03-04T15:05:53.881Z,97451.52
2019-03-04T15:08:21.329Z,97444.17
2019-03-04T15:10:48.777Z,97458.31
2019-03-04T15:13:16.195Z,97460.94
2019-03-04T15:15:43.630Z,97493.16
2019-03-04T15:18:11.108Z,97471.33
2019-03-04T15:20:38.542Z,97487.36
2019-03-04T15:23:05.996Z,97489.60
2019-03-04T15:25:36.126Z,97502.17
2019-03-04T15:28:11.018Z,97493.25
2019-03-04T15:30:38.456Z,97500.55
2019-03-04T15:33:05.905Z,97512.33
2019-03-04T15:35:33.370Z,97514.48
2019-03-04T15:38:01.243Z,97519.47
2019-03-04T15:40:28.707Z,97522.71
2019-03-04T15:42:56.149Z,97518.95
2019-03-04T15:45:23.579Z,97524.54
2019-03-04T15:47:51.041Z,97531.48
2019-03-04T15:50:18.462Z,97545.94
2019-03-04T15:52:45.909Z,97548.67
2019-03-04T15:55:13.354Z,97549.66
2019-03-04T15:57:42.241Z,97564.59
2019-03-04T16:00:12.609Z,97557.30
2019-03-04T16:02:40.084Z,97575.49
2019-03-04T16:05:07.513Z,97571.75
2019-03-04T16:07:34.984Z,97579.31
2019-03-04T16:10:02.435Z,97578.62
2019-03-04T16:12:30.605Z,97581.02
2019-03-04T16:14:58.115Z,97591.47
2019-03-04T16:17:25.897Z,97606.38
2019-03-04T16:19:53.339Z,97597.23
2019-03-04T16:22:20.828Z,97614.52
2019-03-04T16:24:49.209Z,97605.59
2019-03-04T16:27:15.710Z,97614.72
2019-03-04T16:29:43.168Z,97619.48
2019-03-04T16:32:10.591Z,97620.05
2019-03-04T16:34:38.060Z,97636.95
2019-03-04T16:37:05.514Z,97632.67
2019-03-04T16:39:32.996Z,97621.38
2019-03-04T16:42:00.476Z,97643.99
2019-03-04T16:44:27.910Z,97642.81
2019-03-04T16:46:55.341Z,97655.19
2019-03-04T16:49:22.776Z,97656.97
2019-03-04T16:51:50.254Z,97663.21
2019-03-04T16:54:17.705Z,97663.41
2019-03-04T16:56:45.137Z,97666.34
2019-03-04T16:59:12.589Z,97678.58
2019-03-04T17:01:40.047Z,97682.52
2019-03-04T17:04:07.494Z,97676.48
2019-03-04T17:06:35.231Z,97680.95
2019-03-04T17:09:02.711Z,97692.54
2019-03-04T17:11:30.133Z,97688.27
2019-03-04T17:13:57.583Z,97695.17
2019-03-04T17:16:24.991Z,97704.05
2019-03-04T17:18:52.458Z,97707.35
2019-03-04T17:21:19.871Z,97706.35
2019-03-04T17:23:47.331Z,97707.03
2019-03-04T17:26:14.814Z,97727.30
2019-03-04T17:28:43.171Z,97723.85
2019-03-04T17:31:10.603Z,97734.12
2019-03-04T17:33:38.039Z,97729.55
2019-03-04T17:36:05.715Z,97730.24
2019-03-04T17:38:33.159Z,97739.44
2019-03-04T17:41:00.613Z,97739.95
2019-03-04T17:43:28.073Z,97740.80
2019-03-04T17:45:55.534Z,97741.84
2019-03-04T17:48:23.018Z,97748.62
2019-03-04T17:50:50.469Z,97750.97
2019-03-04T17:53:17.903Z,97752.98
2019-03-04T17:55:45.358Z,97763.89
2019-03-04T17:58:12.810Z,97775.75
2019-03-04T18:00:40.267Z,97770.03
2019-03-04T18:03:08.653Z,97775.15
2019-03-04T18:05:36.251Z,97777.78
2019-03-04T18:08:03.670Z,97784.30
2019-03-04T18:10:31.088Z,97781.76
2019-03-04T18:12:58.525Z,97775.06
2019-03-04T18:15:35.570Z,97775.87
2019-03-04T18:18:03.017Z,97787.33
2019-03-04T18:20:34.377Z,97788.28
2019-03-04T18:22:57.908Z,97795.44
2019-03-04T18:25:33.956Z,97792.37
2019-03-04T18:28:17.087Z,97802.17
2019-03-04T18:30:45.220Z,97797.11
2019-03-04T18:33:24.313Z,97806.69
2019-03-04T18:35:53.288Z,97812.09
2019-03-04T18:38:30.934Z,97804.30
2019-03-04T18:41:27.255Z,97805.02
2019-03-04T18:43:54.704Z,97815.54
2019-03-04T18:46:31.716Z,97819.69
2019-03-04T18:48:59.216Z,97830.05
2019-03-04T18:51:26.701Z,97825.27
2019-03-04T18:53:54.163Z,97823.33
2019-03-04T18:56:22.251Z,97819.80
2019-03-04T18:58:49.062Z,97828.95
2019-03-04T19:01:16.520Z,97832.81
2019-03-04T19:03:43.970Z,97821.86
2019-03-04T19:06:11.419Z,97826.81
2019-03-04T19:08:38.884Z,97828.13
2019-03-04T19:11:07.413Z,97838.81
2019-03-04T19:13:34.863Z,97845.63
2019-03-04T19:16:02.291Z,97834.53
2019-03-04T19:18:29.727Z,97840.77
2019-03-04T19:20:57.213Z,97840.64
2019-03-04T19:23:25.403Z,97838.81
2019-03-04T19:25:52.889Z,97840.16
2019-03-04T19:28:20.319Z,97841.98
2019-03-04T19:30:47.792Z,97845.23
2019-03-04T19:33:15.248Z,97850.48
2019-03-04T19:35:42.699Z,97847.00
2019-03-04T19:38:10.138Z,97848.75
2019-03-04T19:40:37.943Z,97853.50
2019-03-04T19:43:05.424Z,97860.03
2019-03-04T19:45:32.853Z,97863.67
2019-03-04T19:48:00.288Z,97859.71
2019-03-04T19:50:27.721Z,97864.09
2019-03-04T19:52:55.162Z,97868.33
2019-03-04T19:55:22.603Z,97878.84
2019-03-04T19:57:50.068Z,97873.02
2019-03-04T20:00:19.319Z,97872.11
2019-03-04T20:02:46.762Z,97877.98
2019-03-04T20:05:14.232Z,97880.72
2019-03-04T20:07:43.796Z,97878.91
2019-03-04T20:10:09.124Z,97876.09
2019-03-04T20:12:36.563Z,97873.45
2019-03-04T20:15:04.049Z,97867.93
2019-03-04T20:17:31.509Z,97877.72
2019-03-04T20:19:58.922Z,97873.95
2019-03-04T20:22:26.374Z,97883.42
2019-03-04T20:24:53.811Z,97873.31
2019-03-04T20:27:21.244Z,97871.55
2019-03-04T20:29:48.761Z,97877.36
2019-03-04T20:32:16.202Z,97870.05
2019-03-04T20:34:43.652Z,97868.78
2019-03-04T20:37:11.666Z,97880.77
2019-03-04T20:39:39.161Z,97877.53
2019-03-04T20:42:06.611Z,97874.59
2019-03-04T20:44:34.077Z,97877.08
2019-03-04T20:47:01.540Z,97869.98
2019-03-04T20:49:28.955Z,97864.47
2019-03-04T20:51:56.402Z,97875.12
2019-03-04T20:54:23.837Z,97882.30
2019-03-04T20:56:51.263Z,97877.82
2019-03-04T20:59:18.722Z,97872.07
2019-03-04T21:01:46.208Z,97870.34
2019-03-04T21:04:13.635Z,97878.88
2019-03-04T21:06:41.580Z,97880.20
2019-03-04T21:09:09.016Z,97885.84
2019-03-04T21:11:37.357Z,97880.62
2019-03-04T21:14:04.867Z,97885.11
2019-03-04T21:16:32.314Z,97876.36
2019-03-04T21:18:59.751Z,97892.30
2019-03-04T21:21:27.215Z,97881.38
2019-03-04T21:23:54.639Z,97898.48
2019-03-04T21:26:22.071Z,97901.06
2019-03-04T21:29:04.121Z,97910.96
2019-03-04T21:31:48.229Z,97934.94
2019-03-04T21:34:21.453Z,97987.68
2019-03-04T21:36:54.521Z,97957.42
2019-03-04T21:39:27.354Z,97950.41
2019-03-04T21:41:56.734Z,97968.68
2019-03-04T21:44:36.118Z,97964.28
2019-03-04T21:47:07.074Z,97969.70
2019-03-04T21:49:34.558Z,97971.02
2019-03-04T21:52:08.466Z,97977.88
2019-03-04T21:54:35.891Z,97975.27
2019-03-04T21:57:14.842Z,97979.12
2019-03-04T21:59:42.319Z,97981.20
2019-03-04T22:02:11.977Z,97978.30
2019-03-04T22:04:39.538Z,97981.95
2019-03-04T22:07:06.974Z,97976.70
2019-03-04T22:09:34.509Z,97979.91
2019-03-04T22:12:02.782Z,97984.33
2019-03-04T22:14:30.217Z,97979.89
2019-03-04T22:16:57.679Z,97976.13
2019-03-04T22:19:25.170Z,97975.67
2019-03-04T22:21:52.610Z,97977.19
2019-03-04T22:24:20.062Z,97987.00
2019-03-04T22:26:47.494Z,97995.29
2019-03-04T22:29:14.969Z,97985.99
2019-03-04T22:31:42.433Z,97983.32
2019-03-04T22:34:09.881Z,97992.33
2019-03-04T22:36:37.368Z,97983.05
2019-03-04T22:39:04.850Z,98002.56
2019-03-04T22:41:32.330Z,97990.62
2019-03-04T22:44:00.506Z,98001.21
2019-03-04T22:46:27.956Z,98018.89
2019-03-04T22:48:55.428Z,98000.24
2019-03-04T22:51:23.402Z,98004.20
2019-03-04T22:53:50.875Z,98009.70
2019-03-04T22:56:18.333Z,98005.98
2019-03-04T22:58:45.780Z,98005.78
2019-03-04T23:01:16.510Z,97992.08
2019-03-04T23:03:43.942Z,98019.09
2019-03-04T23:06:27.064Z,98009.70
2019-03-04T23:08:54.510Z,98006.13
2019-03-04T23:11:21.942Z,98021.50
2019-03-04T23:14:04.452Z,98030.77
2019-03-04T23:16:32.097Z,98035.42
2019-03-04T23:18:59.535Z,98043.80
2019-03-04T23:21:27.179Z,98015.55
2019-03-04T23:23:55.427Z,98027.34
2019-03-04T23:26:22.868Z,98020.94
2019-03-04T23:28:50.320Z,98027.27
2019-03-04T23:31:17.779Z,98033.97
2019-03-04T23:33:45.204Z,98025.85
2019-03-04T23:36:13.222Z,98028.09
2019-03-04T23:38:40.662Z,98037.45
2019-03-04T23:41:08.119Z,98014.14
2019-03-04T23:43:35.562Z,98033.81
2019-03-04T23:46:03.019Z,98025.15
2019-03-04T23:48:30.477Z,98029.73
2019-03-04T23:50:57.937Z,98027.91
2019-03-04T23:53:25.412Z,98032.52
2019-03-04T23:55:52.868Z,98039.39
2019-03-04T23:58:20.313Z,98026.55
